createdAt,value
2018-06-08T00:01:46.673Z,23.9
2018-06-08T00:06:44.956Z,23.7
2018-06-08T00:11:43.122Z,23.8
2018-06-08T00:16:41.399Z,23.7
2018-06-08T00:21:39.677Z,23.7
2018-06-08T00:26:37.440Z,23.5
2018-06-08T00:31:35.578Z,23.6
2018-06-08T00:36:34.006Z,23.6
2018-06-08T00:41:31.827Z,23.5
2018-06-08T00:46:30.042Z,23.5
2018-06-08T00:51:28.303Z,23.4
2018-06-08T00:56:25.946Z,23.4
2018-06-08T01:01:24.298Z,23.4
2018-06-08T01:06:22.482Z,23.3
2018-06-08T01:11:20.819Z,23.3
2018-06-08T01:16:19.139Z,23.2
2018-06-08T01:21:17.413Z,23.2
2018-06-08T01:26:15.645Z,23.1
2018-06-08T01:31:13.856Z,23.1
2018-06-08T01:36:11.996Z,23
2018-06-08T01:41:09.934Z,23
2018-06-08T01:46:08.125Z,22.9
2018-06-08T01:51:06.464Z,22.9
2018-06-08T01:56:04.732Z,22.9
2018-06-08T02:01:02.759Z,22.8
2018-06-08T02:06:01.061Z,22.8
2018-06-08T02:10:59.284Z,22.7
2018-06-08T02:15:57.373Z,22.7
2018-06-08T02:20:55.710Z,22.6
2018-06-08T02:25:53.892Z,22.6
2018-06-08T02:30:51.478Z,22.5
2018-06-08T02:35:49.932Z,22.5
2018-06-08T02:40:48.013Z,22.5
2018-06-08T02:45:46.329Z,22.4
2018-06-08T02:50:44.375Z,22.4
2018-06-08T02:55:42.624Z,22.3
2018-06-08T03:00:40.703Z,22.3
2018-06-08T03:05:38.913Z,22.2
2018-06-08T03:10:37.064Z,22.2
2018-06-08T03:15:35.257Z,22.2
2018-06-08T03:20:33.230Z,22.1
2018-06-08T03:25:31.327Z,22.1
2018-06-08T03:30:29.608Z,22.1
2018-06-08T03:35:27.886Z,22
2018-06-08T03:40:26.006Z,22
2018-06-08T03:45:24.135Z,22
2018-06-08T03:50:22.147Z,22
2018-06-08T03:55:20.519Z,21.8
2018-06-08T04:00:18.817Z,21.9
2018-06-08T04:05:16.998Z,21.9
2018-06-08T04:10:15.418Z,21.8
2018-06-08T04:15:13.688Z,21.8
2018-06-08T04:20:12.013Z,21.8
2018-06-08T04:25:10.355Z,21.7
2018-06-08T04:30:08.534Z,21.7
2018-06-08T04:35:06.735Z,21.6
2018-06-08T04:40:05.083Z,21.6
2018-06-08T04:45:03.351Z,21.6
2018-06-08T04:50:01.571Z,21.6
2018-06-08T04:54:59.835Z,21.6
2018-06-08T04:59:58.017Z,21.6
2018-06-08T05:04:56.498Z,21.5
2018-06-08T05:09:54.575Z,21.5
2018-06-08T05:14:52.904Z,21.5
2018-06-08T05:19:51.071Z,21.5
2018-06-08T05:24:49.250Z,21.5
2018-06-08T05:29:47.498Z,21.5
2018-06-08T05:34:45.788Z,21.5
2018-06-08T05:39:44.251Z,21.5
2018-06-08T05:44:42.610Z,21.5
2018-06-08T05:49:40.814Z,21.5
2018-06-08T05:54:38.985Z,21.5
2018-06-08T05:59:37.367Z,21.5
2018-06-08T06:04:35.200Z,21.5
2018-06-08T06:09:32.960Z,21.5
2018-06-08T06:14:30.965Z,21.5
2018-06-08T06:19:29.253Z,21.6
2018-06-08T06:24:27.318Z,21.6
2018-06-08T06:29:25.570Z,21.6
2018-06-08T06:34:23.874Z,21.6
2018-06-08T06:39:22.148Z,21.7
2018-06-08T06:44:20.385Z,21.7
2018-06-08T06:49:18.653Z,21.7
2018-06-08T06:54:17.065Z,21.8
2018-06-08T06:59:15.362Z,21.8
2018-06-08T07:04:13.765Z,21.8
2018-06-08T07:09:12.185Z,21.9
2018-06-08T07:14:10.691Z,21.9
2018-06-08T07:19:09.183Z,22
2018-06-08T07:29:05.614Z,22
2018-06-08T07:34:03.968Z,22.1
2018-06-08T07:39:02.392Z,22.1
2018-06-08T07:44:00.570Z,22.2
2018-06-08T07:48:58.493Z,22.2
2018-06-08T07:53:56.664Z,22.3
2018-06-08T07:58:55.053Z,22.3
2018-06-08T08:03:53.429Z,22.4
2018-06-08T08:08:52.025Z,22.5
2018-06-08T08:13:49.723Z,22.5
2018-06-08T08:18:47.914Z,22.6
2018-06-08T08:23:46.225Z,22.6
2018-06-08T08:28:44.770Z,22.7
2018-06-08T08:33:42.748Z,22.7
2018-06-08T08:38:41.013Z,22.8
2018-06-08T08:43:39.535Z,22.9
2018-06-08T08:48:37.751Z,22.9
2018-06-08T08:53:35.937Z,22.9
2018-06-08T08:58:34.265Z,23
2018-06-08T09:03:32.513Z,23.1
2018-06-08T09:08:30.535Z,23.1
2018-06-08T09:13:28.810Z,23.2
2018-06-08T09:18:26.886Z,23.3
2018-06-08T09:23:25.223Z,23.4
2018-06-08T09:28:23.487Z,23.3
2018-06-08T09:33:21.326Z,23.5
2018-06-08T09:38:19.037Z,23.6
2018-06-08T09:43:17.452Z,23.6
2018-06-08T09:48:15.890Z,23.7
2018-06-08T09:53:14.117Z,23.7
2018-06-08T09:58:12.232Z,23.8
2018-06-08T10:03:10.564Z,23.9
2018-06-08T10:08:08.992Z,24.1
2018-06-08T10:13:07.577Z,24.3
2018-06-08T10:18:06.654Z,24.5
2018-06-08T10:23:05.069Z,24.7
2018-06-08T10:28:03.352Z,24.8
2018-06-08T10:33:01.153Z,25
2018-06-08T10:37:59.749Z,25.2
2018-06-08T10:42:57.913Z,25.4
2018-06-08T10:47:56.383Z,25.5
2018-06-08T10:52:54.831Z,25.7
2018-06-08T10:57:53.205Z,25.8
2018-06-08T11:02:52.031Z,26
2018-06-08T11:07:50.438Z,26.2
2018-06-08T11:12:48.908Z,26.4
2018-06-08T11:17:47.139Z,26.6
2018-06-08T11:22:45.771Z,26.8
2018-06-08T11:27:44.399Z,26.9
2018-06-08T11:32:42.889Z,27
2018-06-08T11:37:40.986Z,27.1
2018-06-08T11:42:39.694Z,27.2
2018-06-08T11:47:38.334Z,27.3
2018-06-08T11:52:36.811Z,27.4
2018-06-08T11:57:35.037Z,27.5
2018-06-08T12:02:33.557Z,27.6
2018-06-08T12:07:32.232Z,27.7
2018-06-08T12:12:30.893Z,27.8
2018-06-08T12:17:28.950Z,27.9
2018-06-08T12:22:27.352Z,28
2018-06-08T12:27:25.947Z,28.1
2018-06-08T12:37:27.960Z,28.2
2018-06-08T12:42:26.788Z,28.2
2018-06-08T12:47:25.427Z,28.4
2018-06-08T12:52:24.005Z,28.5
2018-06-08T12:57:22.435Z,28.6
2018-06-08T13:02:21.010Z,28.8
2018-06-08T13:07:19.743Z,28.9
2018-06-08T13:12:18.760Z,28.9
2018-06-08T13:17:17.397Z,29
2018-06-08T13:22:16.162Z,29.1
2018-06-08T13:27:13.910Z,29.1
2018-06-08T13:32:12.044Z,29.2
2018-06-08T13:37:10.495Z,29.2
2018-06-08T13:42:08.516Z,29.3
2018-06-08T13:47:06.977Z,29.3
2018-06-08T13:52:05.592Z,29.4
2018-06-08T13:57:04.051Z,29.4
2018-06-08T14:02:02.780Z,29.5
2018-06-08T14:07:01.339Z,29.5
2018-06-08T14:11:59.835Z,29.6
2018-06-08T14:16:58.300Z,29.6
2018-06-08T14:21:56.636Z,29.6
2018-06-08T14:26:54.900Z,29.7
2018-06-08T14:31:53.192Z,29.7
2018-06-08T14:36:51.385Z,29.8
2018-06-08T14:41:49.792Z,29.7
2018-06-08T14:46:47.951Z,29.8
2018-06-08T14:51:46.207Z,29.9
2018-06-08T14:56:44.682Z,29.9
2018-06-08T15:01:43.132Z,29.9
2018-06-08T15:06:41.639Z,30
2018-06-08T15:11:40.350Z,30
2018-06-08T15:16:38.455Z,30
2018-06-08T15:21:37.144Z,30.1
2018-06-08T15:26:35.569Z,30.1
2018-06-08T15:31:34.124Z,30
2018-06-08T15:36:32.471Z,30
2018-06-08T15:41:31.028Z,30
2018-06-08T15:46:29.370Z,29.9
2018-06-08T15:51:27.583Z,29.8
2018-06-08T15:56:25.946Z,29.8
2018-06-08T16:01:24.264Z,29.7
2018-06-08T16:06:22.414Z,29.7
2018-06-08T16:11:20.701Z,29.7
2018-06-08T16:16:18.395Z,29.6
2018-06-08T16:21:16.321Z,29.6
2018-06-08T16:26:14.741Z,29.6
2018-06-08T16:31:13.253Z,29.6
2018-06-08T16:36:11.772Z,29.6
2018-06-08T16:41:10.253Z,29.5
2018-06-08T16:46:08.524Z,29.5
2018-06-08T16:51:06.689Z,29.4
2018-06-08T16:56:05.199Z,29.4
2018-06-08T17:01:03.530Z,29.3
2018-06-08T17:06:01.703Z,29.2
2018-06-08T17:10:59.459Z,29.2
2018-06-08T17:15:57.728Z,29.1
2018-06-08T17:20:56.181Z,29
2018-06-08T17:25:54.679Z,29
2018-06-08T17:30:53.192Z,28.9
2018-06-08T17:35:51.533Z,28.9
2018-06-08T17:40:49.953Z,28.9
2018-06-08T17:45:48.541Z,28.9
2018-06-08T17:50:46.963Z,28.8
2018-06-08T17:55:45.279Z,28.7
2018-06-08T18:00:43.589Z,28.7
2018-06-08T18:05:41.970Z,28.6
2018-06-08T18:10:40.499Z,28.5
2018-06-08T18:15:39.052Z,28.5
2018-06-08T18:20:37.198Z,28.5
2018-06-08T18:25:35.539Z,28.5
2018-06-08T18:30:34.229Z,28.5
2018-06-08T18:35:32.194Z,28.5
2018-06-08T18:40:30.640Z,28.5
2018-06-08T18:45:28.730Z,28.5
2018-06-08T18:50:27.027Z,28.5
2018-06-08T18:55:25.245Z,28.6
2018-06-08T19:00:23.443Z,28.6
2018-06-08T19:05:21.803Z,28.6
2018-06-08T19:10:20.365Z,28.6
2018-06-08T19:15:19.075Z,28.6
2018-06-08T19:20:17.732Z,28.6
2018-06-08T19:25:15.637Z,28.6
2018-06-08T19:30:14.043Z,28.5
2018-06-08T19:35:12.503Z,28.5
2018-06-08T19:40:10.771Z,28.4
2018-06-08T19:45:08.649Z,28.4
2018-06-08T19:50:06.898Z,28.4
2018-06-08T19:55:05.339Z,28.4
2018-06-08T20:00:03.689Z,28.4
2018-06-08T20:05:02.543Z,28.4
2018-06-08T20:10:01.015Z,28.4
2018-06-08T20:14:58.989Z,28.4
2018-06-08T20:19:57.423Z,28.4
2018-06-08T20:24:55.777Z,28.4
2018-06-08T20:29:54.206Z,28.3
2018-06-08T20:34:52.584Z,28.3
2018-06-08T20:39:50.981Z,28.2
2018-06-08T20:44:49.016Z,28.1
2018-06-08T20:49:47.463Z,28
2018-06-08T20:54:45.957Z,27.9
2018-06-08T20:59:44.316Z,27.8
2018-06-08T21:04:42.319Z,27.8
2018-06-08T21:09:40.597Z,27.7
2018-06-08T21:14:38.847Z,27.6
2018-06-08T21:19:37.311Z,27.5
2018-06-08T21:24:35.488Z,27.4
2018-06-08T21:29:33.895Z,27.4
2018-06-08T21:34:31.774Z,27.4
2018-06-08T21:39:30.126Z,27.3
2018-06-08T21:44:28.538Z,27.2
2018-06-08T21:49:26.958Z,27.2
2018-06-08T21:54:25.100Z,27.1
2018-06-08T21:59:23.278Z,27
2018-06-08T22:04:21.538Z,27
2018-06-08T22:09:19.776Z,27
2018-06-08T22:14:18.266Z,26.9
2018-06-08T22:19:16.673Z,26.9
2018-06-08T22:24:15.184Z,26.9
2018-06-08T22:29:13.457Z,26.8
2018-06-08T22:34:11.356Z,26.8
2018-06-08T22:39:09.311Z,26.7
2018-06-08T22:44:07.118Z,26.7
2018-06-08T22:49:05.692Z,26.6
2018-06-08T22:54:03.609Z,26.6
2018-06-08T22:59:02.164Z,26.5
2018-06-08T23:04:00.568Z,26.5
2018-06-08T23:08:59.007Z,26.4
2018-06-08T23:13:57.369Z,26.4
2018-06-08T23:18:55.807Z,26.3
2018-06-08T23:23:54.096Z,26.2
2018-06-08T23:28:52.545Z,26.2
2018-06-08T23:33:51.014Z,26.1
2018-06-08T23:38:49.303Z,26.1
2018-06-08T23:43:47.580Z,26
2018-06-08T23:48:45.889Z,25.9
2018-06-08T23:53:43.981Z,25.9
2018-06-08T23:58:42.173Z,25.8
